createdAt,value
2023-04-18T00:00:10.762Z,62.68
2023-04-18T00:02:47.749Z,62.44
2023-04-18T00:05:18.388Z,62.37
2023-04-18T00:07:48.833Z,62.32
2023-04-18T00:10:19.510Z,62.16
2023-04-18T00:12:50.041Z,62.12
2023-04-18T00:15:20.067Z,61.81
2023-04-18T00:17:56.643Z,62.29
2023-04-18T00:20:28.862Z,62.48
2023-04-18T00:23:00.908Z,62.72
2023-04-18T00:25:31.163Z,62.88
2023-04-18T00:28:01.503Z,62.97
2023-04-18T00:30:31.635Z,63.00
2023-04-18T00:33:04.804Z,62.90
2023-04-18T00:35:34.965Z,62.55
2023-04-18T00:38:05.028Z,62.36
2023-04-18T00:40:35.226Z,62.14
2023-04-18T00:43:05.537Z,62.11
2023-04-18T00:45:37.207Z,62.24
2023-04-18T00:48:10.336Z,61.96
2023-04-18T00:50:41.793Z,61.86
2023-04-18T00:53:12.863Z,61.85
2023-04-18T00:55:44.294Z,61.97
2023-04-18T00:58:15.035Z,61.80
2023-04-18T01:00:45.998Z,61.83
2023-04-18T01:03:19.288Z,61.87
2023-04-18T01:05:49.728Z,61.59
2023-04-18T01:08:21.684Z,61.62
2023-04-18T01:10:52.430Z,62.09
2023-04-18T01:13:23.587Z,61.92
2023-04-18T01:15:55.886Z,62.03
2023-04-18T01:18:31.664Z,61.96
2023-04-18T01:21:02.794Z,62.13
2023-04-18T01:23:33.491Z,61.83
2023-04-18T01:26:06.304Z,61.91
2023-04-18T01:28:39.773Z,61.93
2023-04-18T01:31:11.250Z,62.00
2023-04-18T01:33:41.575Z,62.25
2023-04-18T01:36:11.665Z,62.24
2023-04-18T01:38:41.747Z,62.62
2023-04-18T01:41:14.674Z,62.65
2023-04-18T01:43:46.254Z,62.37
2023-04-18T01:46:17.014Z,62.58
2023-04-18T01:48:47.345Z,62.61
2023-04-18T01:51:17.514Z,62.65
2023-04-18T01:53:47.740Z,62.80
2023-04-18T01:56:21.125Z,63.21
2023-04-18T01:58:51.319Z,62.95
2023-04-18T02:01:21.715Z,62.89
2023-04-18T02:03:51.986Z,62.65
2023-04-18T02:06:22.600Z,62.65
2023-04-18T02:08:52.669Z,62.96
2023-04-18T02:11:25.381Z,62.95
2023-04-18T02:13:55.831Z,63.07
2023-04-18T02:16:26.030Z,63.13
2023-04-18T02:18:56.735Z,62.88
2023-04-18T02:21:27.170Z,62.65
2023-04-18T02:23:57.217Z,62.60
2023-04-18T02:26:29.922Z,62.66
2023-04-18T02:29:01.569Z,62.45
2023-04-18T02:31:33.227Z,62.06
2023-04-18T02:34:03.318Z,61.87
2023-04-18T02:36:33.441Z,61.86
2023-04-18T02:39:03.555Z,61.84
2023-04-18T02:41:37.852Z,61.59
2023-04-18T02:44:08.346Z,61.81
2023-04-18T02:46:41.545Z,61.82
2023-04-18T02:49:15.703Z,61.72
2023-04-18T02:51:47.933Z,61.96
2023-04-18T02:54:19.547Z,61.82
2023-04-18T02:57:07.300Z,61.90
2023-04-18T02:59:55.890Z,61.74
2023-04-18T03:02:44.883Z,61.63
2023-04-18T03:05:28.259Z,61.61
2023-04-18T03:08:02.134Z,61.79
2023-04-18T03:10:32.962Z,61.62
2023-04-18T03:13:05.854Z,62.05
2023-04-18T03:15:36.605Z,61.89
2023-04-18T03:18:07.333Z,61.84
2023-04-18T03:20:41.066Z,61.96
2023-04-18T03:23:11.663Z,62.23
2023-04-18T03:25:42.350Z,61.96
2023-04-18T03:28:15.207Z,62.05
2023-04-18T03:30:45.644Z,61.92
2023-04-18T03:33:17.229Z,61.99
2023-04-18T03:35:49.009Z,61.98
2023-04-18T03:38:19.234Z,61.98
2023-04-18T03:40:49.312Z,61.88
2023-04-18T03:43:29.590Z,62.03
2023-04-18T03:45:59.766Z,61.90
2023-04-18T03:48:31.118Z,61.76
2023-04-18T03:51:05.148Z,61.79
2023-04-18T03:53:35.916Z,62.07
2023-04-18T03:56:06.335Z,62.05
2023-04-18T03:58:52.254Z,62.36
2023-04-18T04:01:24.519Z,62.71
2023-04-18T04:03:56.322Z,62.82
2023-04-18T04:06:26.982Z,63.01
2023-04-18T04:08:57.896Z,63.15
2023-04-18T04:11:29.804Z,62.91
2023-04-18T04:14:02.646Z,63.21
2023-04-18T04:16:40.700Z,63.01
2023-04-18T04:19:12.313Z,63.21
2023-04-18T04:21:49.541Z,63.10
2023-04-18T04:24:20.621Z,63.10
2023-04-18T04:26:51.744Z,63.32
2023-04-18T04:29:29.187Z,63.31
2023-04-18T04:32:01.755Z,62.87
2023-04-18T04:34:37.035Z,63.24
2023-04-18T04:37:09.812Z,62.96
2023-04-18T04:39:49.537Z,63.09
2023-04-18T04:42:34.788Z,62.85
2023-04-18T04:45:15.362Z,63.21
2023-04-18T04:47:45.618Z,63.33
2023-04-18T04:50:17.693Z,63.25
2023-04-18T04:52:47.919Z,63.06
2023-04-18T04:55:19.187Z,63.33
2023-04-18T04:57:49.706Z,63.06
2023-04-18T05:00:36.607Z,62.82
2023-04-18T05:03:07.392Z,61.43
2023-04-18T05:05:37.827Z,60.49
2023-04-18T05:08:08.564Z,60.06
2023-04-18T05:10:39.337Z,60.30
2023-04-18T05:13:09.453Z,60.28
2023-04-18T05:15:42.622Z,59.32
2023-04-18T05:18:14.329Z,59.65
2023-04-18T05:20:44.419Z,59.94
2023-04-18T05:23:14.515Z,59.87
2023-04-18T05:25:44.774Z,59.90
2023-04-18T05:28:14.837Z,60.06
2023-04-18T05:30:47.983Z,60.01
2023-04-18T05:33:18.120Z,60.20
2023-04-18T05:35:48.295Z,60.73
2023-04-18T05:38:18.486Z,60.81
2023-04-18T05:40:51.164Z,60.57
2023-04-18T05:43:22.089Z,60.40
2023-04-18T05:45:57.652Z,60.20
2023-04-18T05:48:28.170Z,60.24
2023-04-18T05:51:13.100Z,59.45
2023-04-18T05:53:43.283Z,59.35
2023-04-18T05:56:13.658Z,58.67
2023-04-18T05:58:45.255Z,58.90
2023-04-18T06:01:18.813Z,58.63
2023-04-18T06:03:49.205Z,58.73
2023-04-18T06:06:19.618Z,58.83
2023-04-18T06:08:49.870Z,58.44
2023-04-18T06:11:22.763Z,58.83
2023-04-18T06:13:55.853Z,58.62
2023-04-18T06:16:28.992Z,58.22
2023-04-18T06:19:01.212Z,58.50
2023-04-18T06:21:32.249Z,57.75
2023-04-18T06:24:02.476Z,57.88
2023-04-18T06:26:33.376Z,57.91
2023-04-18T06:29:03.522Z,58.30
2023-04-18T06:31:36.262Z,57.55
2023-04-18T06:34:06.401Z,57.52
2023-04-18T06:36:36.912Z,57.51
2023-04-18T06:39:07.091Z,57.08
2023-04-18T06:41:37.481Z,56.92
2023-04-18T06:44:07.720Z,56.42
2023-04-18T06:46:40.673Z,56.64
2023-04-18T06:49:10.932Z,56.06
2023-04-18T06:51:41.109Z,55.97
2023-04-18T06:54:11.732Z,55.41
2023-04-18T06:56:44.269Z,54.77
2023-04-18T06:59:14.781Z,54.06
2023-04-18T07:01:47.676Z,53.21
2023-04-18T07:04:18.203Z,52.37
2023-04-18T07:06:48.867Z,50.39
2023-04-18T07:09:20.445Z,48.73
2023-04-18T07:11:51.431Z,46.08
2023-04-18T07:14:36.508Z,46.08
2023-04-18T07:17:09.288Z,44.64
2023-04-18T07:19:39.451Z,44.48
2023-04-18T07:22:09.637Z,44.82
2023-04-18T07:24:40.151Z,44.79
2023-04-18T07:27:10.423Z,45.19
2023-04-18T07:29:40.597Z,45.95
2023-04-18T07:32:13.594Z,46.37
2023-04-18T07:34:43.919Z,45.86
2023-04-18T07:37:15.275Z,45.77
2023-04-18T07:39:45.543Z,46.94
2023-04-18T07:42:15.629Z,47.84
2023-04-18T07:44:47.313Z,48.11
2023-04-18T07:47:22.279Z,48.09
2023-04-18T07:49:52.682Z,49.15
2023-04-18T07:52:22.796Z,49.72
2023-04-18T07:54:53.271Z,49.97
2023-04-18T07:57:23.478Z,50.22
2023-04-18T07:59:54.580Z,50.58
2023-04-18T08:02:27.462Z,50.86
2023-04-18T08:04:58.014Z,51.04
2023-04-18T08:07:28.324Z,51.50
2023-04-18T08:09:58.390Z,51.63
2023-04-18T08:12:28.418Z,51.92
2023-04-18T08:14:58.522Z,52.40
2023-04-18T08:17:33.693Z,52.50
2023-04-18T08:20:07.404Z,52.69
2023-04-18T08:22:46.814Z,53.06
2023-04-18T08:25:27.306Z,52.85
2023-04-18T08:27:58.000Z,52.60
2023-04-18T08:30:28.228Z,52.57
2023-04-18T08:33:03.086Z,52.49
2023-04-18T08:35:35.566Z,52.72
2023-04-18T08:38:07.949Z,52.58
2023-04-18T08:40:46.109Z,52.58
2023-04-18T08:43:17.388Z,52.08
2023-04-18T08:45:48.761Z,52.32
2023-04-18T08:48:23.867Z,51.97
2023-04-18T08:51:00.320Z,52.04
2023-04-18T08:53:36.978Z,51.23
2023-04-18T08:56:10.565Z,50.18
2023-04-18T08:58:45.364Z,48.94
2023-04-18T09:01:15.606Z,48.06
2023-04-18T09:03:48.336Z,47.22
2023-04-18T09:06:20.457Z,46.22
2023-04-18T09:09:00.426Z,45.45
2023-04-18T09:11:34.657Z,45.09
2023-04-18T09:14:04.789Z,44.79
2023-04-18T09:16:48.223Z,44.88
2023-04-18T09:19:21.905Z,45.14
2023-04-18T09:22:01.468Z,45.02
2023-04-18T09:24:34.851Z,45.41
2023-04-18T09:27:05.146Z,45.42
2023-04-18T09:29:49.712Z,46.41
2023-04-18T09:32:25.653Z,45.88
2023-04-18T09:35:03.969Z,45.78
2023-04-18T09:37:34.801Z,45.42
2023-04-18T09:40:19.474Z,45.76
2023-04-18T09:42:50.921Z,45.39
2023-04-18T09:45:22.301Z,45.66
2023-04-18T09:47:52.620Z,45.50
2023-04-18T09:50:25.431Z,45.35
2023-04-18T09:52:58.398Z,46.09
2023-04-18T09:55:29.565Z,45.68
2023-04-18T09:58:02.345Z,45.67
2023-04-18T10:00:33.828Z,45.42
2023-04-18T10:03:10.112Z,45.30
2023-04-18T10:05:44.187Z,44.56
2023-04-18T10:08:16.698Z,44.65
2023-04-18T10:10:46.799Z,44.89
2023-04-18T10:13:17.349Z,44.72
2023-04-18T10:15:51.404Z,45.31
2023-04-18T10:18:40.889Z,44.96
2023-04-18T10:21:13.602Z,45.07
2023-04-18T10:23:43.994Z,45.34
2023-04-18T10:26:14.314Z,45.54
2023-04-18T10:28:57.031Z,45.47
2023-04-18T10:31:28.937Z,45.24
2023-04-18T10:34:05.560Z,45.53
2023-04-18T10:36:38.910Z,45.46
2023-04-18T10:39:25.708Z,45.45
2023-04-18T10:41:55.898Z,45.03
2023-04-18T10:44:27.272Z,44.82
2023-04-18T10:47:33.034Z,44.71
2023-04-18T10:50:06.799Z,43.93
2023-04-18T10:52:39.827Z,44.43
2023-04-18T10:55:16.651Z,44.85
2023-04-18T10:57:48.078Z,44.66
2023-04-18T11:00:21.928Z,44.20
2023-04-18T11:03:00.369Z,44.96
2023-04-18T11:05:31.528Z,44.47
2023-04-18T11:08:04.412Z,44.91
2023-04-18T11:10:34.764Z,44.48
2023-04-18T11:13:08.693Z,44.47
2023-04-18T11:15:40.026Z,43.77
2023-04-18T11:18:12.240Z,43.52
2023-04-18T11:20:59.070Z,43.91
2023-04-18T11:23:31.756Z,43.91
2023-04-18T11:26:03.480Z,44.33
2023-04-18T11:28:33.752Z,44.71
2023-04-18T11:31:06.517Z,44.42
2023-04-18T11:33:37.199Z,44.66
2023-04-18T11:36:08.425Z,46.82
2023-04-18T11:38:43.757Z,45.60
2023-04-18T11:41:17.293Z,45.95
2023-04-18T11:43:48.603Z,45.19
2023-04-18T11:46:18.733Z,44.28
2023-04-18T11:48:50.654Z,44.43
2023-04-18T11:51:38.928Z,44.71
2023-04-18T11:54:41.740Z,45.08
2023-04-18T11:57:23.927Z,45.51
2023-04-18T11:59:56.362Z,45.99
2023-04-18T12:02:42.602Z,45.37
2023-04-18T12:05:15.258Z,45.18
2023-04-18T12:07:48.181Z,46.05
2023-04-18T12:10:31.559Z,45.87
2023-04-18T12:13:02.562Z,45.53
2023-04-18T12:15:33.851Z,45.37
2023-04-18T12:18:05.519Z,46.30
2023-04-18T12:20:54.272Z,46.14
2023-04-18T12:23:35.697Z,46.81
2023-04-18T12:26:11.772Z,45.94
2023-04-18T12:28:42.863Z,46.10
2023-04-18T12:31:13.111Z,45.53
2023-04-18T12:33:43.299Z,45.80
2023-04-18T12:36:13.529Z,45.72
2023-04-18T12:38:43.983Z,45.85
2023-04-18T12:41:16.793Z,46.13
2023-04-18T12:43:47.083Z,46.47
2023-04-18T12:46:17.229Z,46.12
2023-04-18T12:48:47.457Z,45.81
2023-04-18T12:51:17.908Z,45.45
2023-04-18T12:53:48.020Z,45.86
2023-04-18T12:56:21.229Z,45.74
2023-04-18T12:58:52.045Z,45.81
2023-04-18T13:01:22.435Z,45.42
2023-04-18T13:04:03.809Z,45.90
2023-04-18T13:06:34.909Z,45.68
2023-04-18T13:09:05.069Z,45.00
2023-04-18T13:11:37.946Z,45.51
2023-04-18T13:14:08.063Z,45.20
2023-04-18T13:16:38.471Z,45.52
2023-04-18T13:19:09.019Z,45.66
2023-04-18T13:21:39.544Z,46.02
2023-04-18T13:24:10.495Z,46.48
2023-04-18T13:26:43.227Z,46.70
2023-04-18T13:29:13.549Z,46.44
2023-04-18T13:31:44.263Z,46.65
2023-04-18T13:34:14.557Z,46.02
2023-04-18T13:36:44.720Z,45.22
2023-04-18T13:39:15.514Z,45.51
2023-04-18T13:41:48.460Z,45.19
2023-04-18T13:44:18.592Z,45.43
2023-04-18T13:46:49.157Z,44.94
2023-04-18T13:49:19.306Z,44.54
2023-04-18T13:51:50.651Z,44.57
2023-04-18T13:54:20.839Z,44.00
2023-04-18T13:56:53.512Z,44.61
2023-04-18T13:59:25.063Z,44.40
2023-04-18T14:01:55.673Z,44.45
2023-04-18T14:04:27.236Z,44.72
2023-04-18T14:06:59.067Z,45.07
2023-04-18T14:09:32.232Z,45.25
2023-04-18T14:12:08.237Z,45.24
2023-04-18T14:14:38.607Z,45.59
2023-04-18T14:17:08.856Z,45.95
2023-04-18T14:19:41.795Z,46.08
2023-04-18T14:22:12.215Z,46.24
2023-04-18T14:24:45.295Z,45.68
2023-04-18T14:27:18.115Z,45.88
2023-04-18T14:29:49.081Z,46.46
2023-04-18T14:32:19.243Z,46.45
2023-04-18T14:34:49.401Z,46.05
2023-04-18T14:37:19.553Z,46.37
2023-04-18T14:39:51.660Z,46.55
2023-04-18T14:42:24.427Z,46.64
2023-04-18T14:44:54.681Z,46.95
2023-04-18T14:47:31.083Z,46.86
2023-04-18T14:50:01.390Z,46.74
2023-04-18T14:52:31.627Z,47.17
2023-04-18T14:55:01.987Z,47.45
2023-04-18T14:57:34.948Z,47.25
2023-04-18T15:00:05.679Z,47.19
2023-04-18T15:02:36.236Z,46.53
2023-04-18T15:05:11.303Z,47.14
2023-04-18T15:07:43.090Z,46.74
2023-04-18T15:10:15.456Z,46.92
2023-04-18T15:12:49.310Z,47.03
2023-04-18T15:15:25.394Z,47.32
2023-04-18T15:17:55.725Z,47.30
2023-04-18T15:20:25.949Z,47.80
2023-04-18T15:22:56.481Z,47.87
2023-04-18T15:25:30.608Z,47.34
2023-04-18T15:28:03.532Z,47.51
2023-04-18T15:30:33.813Z,47.60
2023-04-18T15:33:04.613Z,47.53
2023-04-18T15:35:35.100Z,47.57
2023-04-18T15:38:06.825Z,47.25
2023-04-18T15:40:38.304Z,47.39
2023-04-18T15:43:13.936Z,47.34
2023-04-18T15:45:44.659Z,47.10
2023-04-18T15:48:14.944Z,47.19
2023-04-18T15:50:45.250Z,46.92
2023-04-18T15:53:15.417Z,47.37
2023-04-18T15:55:46.668Z,47.38
2023-04-18T15:58:20.825Z,46.90
2023-04-18T16:00:51.111Z,47.16
2023-04-18T16:03:21.656Z,46.89
2023-04-18T16:05:57.513Z,46.91
2023-04-18T16:08:33.157Z,46.31
2023-04-18T16:11:08.266Z,46.05
2023-04-18T16:13:43.719Z,45.74
2023-04-18T16:16:14.211Z,45.72
2023-04-18T16:18:49.648Z,45.95
2023-04-18T16:21:20.069Z,45.36
2023-04-18T16:24:05.095Z,45.49
2023-04-18T16:26:35.409Z,45.14
2023-04-18T16:29:08.385Z,45.37
2023-04-18T16:31:38.918Z,45.69
2023-04-18T16:34:09.825Z,45.42
2023-04-18T16:36:40.331Z,45.32
2023-04-18T16:39:10.480Z,45.65
2023-04-18T16:41:40.602Z,46.09
2023-04-18T16:44:13.527Z,46.31
2023-04-18T16:46:43.874Z,46.24
2023-04-18T16:49:14.053Z,46.27
2023-04-18T16:51:44.378Z,46.13
2023-04-18T16:54:14.677Z,46.14
2023-04-18T16:56:45.001Z,46.07
2023-04-18T16:59:17.962Z,46.08
2023-04-18T17:01:48.132Z,46.22
2023-04-18T17:04:18.465Z,46.10
2023-04-18T17:06:50.937Z,46.27
2023-04-18T17:09:22.253Z,46.12
2023-04-18T17:11:52.889Z,46.62
2023-04-18T17:14:33.408Z,46.93
2023-04-18T17:17:03.910Z,47.32
2023-04-18T17:19:34.304Z,47.34
2023-04-18T17:22:04.721Z,47.44
2023-04-18T17:24:36.880Z,47.29
2023-04-18T17:27:07.499Z,47.78
2023-04-18T17:29:41.088Z,48.30
2023-04-18T17:32:12.467Z,48.35
2023-04-18T17:34:43.024Z,48.66
2023-04-18T17:37:17.438Z,48.81
2023-04-18T17:39:47.949Z,48.87
2023-04-18T17:42:34.324Z,49.17
2023-04-18T17:45:17.501Z,49.47
2023-04-18T17:47:50.008Z,49.51
2023-04-18T17:50:32.699Z,49.51
2023-04-18T17:53:04.606Z,49.61
2023-04-18T17:55:39.843Z,49.67
2023-04-18T17:58:14.309Z,49.85
2023-04-18T18:00:47.958Z,49.50
2023-04-18T18:03:22.095Z,49.87
2023-04-18T18:05:56.499Z,49.72
2023-04-18T18:08:32.348Z,49.96
2023-04-18T18:11:06.429Z,49.59
2023-04-18T18:13:36.920Z,49.32
2023-04-18T18:16:13.368Z,49.30
2023-04-18T18:18:46.015Z,49.28
2023-04-18T18:21:16.899Z,49.23
2023-04-18T18:23:50.580Z,49.00
2023-04-18T18:26:23.731Z,48.65
2023-04-18T18:28:54.088Z,48.96
2023-04-18T18:31:26.862Z,49.21
2023-04-18T18:33:57.434Z,49.07
2023-04-18T18:36:27.863Z,49.01
2023-04-18T18:38:58.130Z,49.12
2023-04-18T18:41:28.226Z,48.70
2023-04-18T18:44:01.474Z,48.75
2023-04-18T18:46:34.458Z,48.74
2023-04-18T18:49:06.907Z,48.34
2023-04-18T18:51:41.020Z,48.42
2023-04-18T18:54:13.374Z,48.52
2023-04-18T18:56:44.382Z,48.64
2023-04-18T18:59:15.943Z,48.56
2023-04-18T19:01:51.892Z,48.74
2023-04-18T19:04:24.413Z,48.64
2023-04-18T19:10:40.031Z,48.85
2023-04-18T19:13:10.586Z,49.17
2023-04-18T19:15:47.034Z,48.69
2023-04-18T19:18:22.491Z,49.06
2023-04-18T19:20:53.479Z,48.95
2023-04-18T19:23:26.786Z,48.63
2023-04-18T19:25:58.359Z,48.58
2023-04-18T19:28:28.535Z,48.09
2023-04-18T19:30:59.272Z,48.10
2023-04-18T19:33:32.352Z,47.93
2023-04-18T19:36:03.020Z,48.05
2023-04-18T19:38:40.318Z,47.98
2023-04-18T19:41:10.520Z,47.70
2023-04-18T19:43:42.813Z,48.09
2023-04-18T19:46:13.083Z,48.13
2023-04-18T19:48:45.990Z,48.54
2023-04-18T19:51:16.101Z,48.49
2023-04-18T19:53:46.760Z,48.42
2023-04-18T19:56:17.075Z,48.66
2023-04-18T19:58:53.571Z,48.52
2023-04-18T20:01:25.004Z,48.99
2023-04-18T20:04:00.615Z,49.53
2023-04-18T20:06:31.200Z,49.64
2023-04-18T20:09:05.727Z,49.87
2023-04-18T20:11:36.009Z,49.90
2023-04-18T20:14:06.296Z,50.12
2023-04-18T20:16:36.596Z,50.27
2023-04-18T20:19:12.609Z,50.56
2023-04-18T20:21:42.881Z,50.60
2023-04-18T20:24:16.192Z,50.88
2023-04-18T20:26:46.439Z,50.87
2023-04-18T20:29:16.799Z,50.91
2023-04-18T20:31:47.278Z,51.22
2023-04-18T20:34:24.119Z,51.39
2023-04-18T20:36:54.748Z,51.38
2023-04-18T20:39:25.435Z,51.71
2023-04-18T20:41:57.898Z,51.86
2023-04-18T20:44:28.275Z,52.28
2023-04-18T20:46:58.431Z,51.99
2023-04-18T20:49:31.217Z,52.31
2023-04-18T20:52:03.758Z,52.09
2023-04-18T20:54:34.449Z,52.27
2023-04-18T20:57:05.344Z,52.98
2023-04-18T20:59:35.602Z,52.90
2023-04-18T21:02:05.820Z,53.10
2023-04-18T21:04:38.872Z,53.34
2023-04-18T21:07:08.968Z,53.51
2023-04-18T21:09:39.409Z,53.77
2023-04-18T21:12:09.898Z,53.91
2023-04-18T21:14:40.613Z,54.16
2023-04-18T21:17:10.804Z,54.35
2023-04-18T21:19:43.781Z,54.24
2023-04-18T21:22:13.853Z,54.13
2023-04-18T21:24:44.035Z,54.34
2023-04-18T21:27:16.117Z,54.63
2023-04-18T21:29:46.399Z,54.48
2023-04-18T21:32:16.668Z,54.66
2023-04-18T21:34:49.708Z,54.96
2023-04-18T21:37:19.904Z,54.99
2023-04-18T21:39:50.110Z,55.16
2023-04-18T21:42:20.299Z,54.93
2023-04-18T21:44:50.336Z,54.91
2023-04-18T21:47:20.470Z,54.70
2023-04-18T21:49:53.183Z,54.96
2023-04-18T21:52:23.408Z,54.73
2023-04-18T21:54:53.583Z,54.64
2023-04-18T21:57:23.629Z,54.77
2023-04-18T21:59:53.813Z,54.68
2023-04-18T22:02:24.743Z,54.69
2023-04-18T22:04:57.545Z,54.87
2023-04-18T22:07:29.686Z,54.16
2023-04-18T22:10:00.472Z,54.67
2023-04-18T22:12:30.559Z,54.37
2023-04-18T22:15:07.196Z,54.05
2023-04-18T22:17:38.141Z,54.13
2023-04-18T22:20:13.172Z,54.04
2023-04-18T22:22:43.280Z,54.02
2023-04-18T22:25:14.252Z,53.73
2023-04-18T22:27:45.272Z,53.56
2023-04-18T22:30:17.134Z,53.21
2023-04-18T22:32:47.480Z,53.31
2023-04-18T22:35:20.527Z,53.07
2023-04-18T22:37:50.744Z,52.74
2023-04-18T22:40:20.904Z,52.93
2023-04-18T22:42:52.044Z,52.82
2023-04-18T22:45:22.571Z,52.65
2023-04-18T22:47:52.756Z,52.77
2023-04-18T22:50:26.026Z,52.73
2023-04-18T22:52:57.426Z,52.67
2023-04-18T22:55:27.763Z,52.67
2023-04-18T22:57:57.951Z,52.65
2023-04-18T23:00:28.278Z,51.93
2023-04-18T23:02:58.680Z,52.24
2023-04-18T23:05:31.930Z,52.14
2023-04-18T23:08:02.131Z,51.90
2023-04-18T23:10:32.559Z,51.75
2023-04-18T23:13:02.786Z,51.65
2023-04-18T23:15:32.959Z,51.17
2023-04-18T23:18:03.247Z,50.96
2023-04-18T23:20:38.097Z,50.91
2023-04-18T23:23:08.509Z,50.70
2023-04-18T23:25:39.428Z,50.52
2023-04-18T23:28:10.875Z,50.50
2023-04-18T23:30:41.701Z,49.99
2023-04-18T23:33:12.287Z,49.64
2023-04-18T23:35:45.060Z,49.69
2023-04-18T23:38:15.693Z,49.50
2023-04-18T23:40:45.977Z,49.22
2023-04-18T23:43:16.217Z,49.06
2023-04-18T23:45:46.406Z,49.04
2023-04-18T23:48:16.594Z,48.68
2023-04-18T23:50:52.580Z,49.10
2023-04-18T23:53:24.949Z,48.97
2023-04-18T23:55:57.101Z,48.47
2023-04-18T23:58:27.155Z,47.84
